Time;durP1;ratioP1;P1;durP2;ratioP2;P2;SDS_P1;SDS_P2;PMS_P1;PMS_P2;Temp;Humidity;BMP_temperature;BMP_pressure;BME280_temperature;BME280_humidity;BME280_pressure;Samples;Min_cycle;Max_cycle;Signal;HPM_P1;HPM_P2
2022/08/18 00:00:28;;;;;;;2.00;1.80;;;;;;;25.77;47.59;100779.91;4987098;28;20041;-88
2022/08/18 00:02:54;;;;;;;1.77;1.45;;;;;;;25.55;47.75;100762.84;4985110;28;20407;-86
2022/08/18 00:05:20;;;;;;;1.42;1.30;;;;;;;25.53;48.24;100770.97;4984816;28;20558;-87
2022/08/18 00:07:46;;;;;;;1.30;1.20;;;;;;;25.53;47.90;100764.84;4969734;28;20521;-87
2022/08/18 00:10:11;;;;;;;2.33;1.40;;;;;;;25.61;47.73;100775.44;5002099;28;20029;-87
2022/08/18 00:12:38;;;;;;;2.85;1.77;;;;;;;25.58;47.94;100778.44;5001279;28;20588;-87
2022/08/18 00:15:07;;;;;;;1.52;1.30;;;;;;;25.63;47.18;100784.03;4985851;28;20033;-87
2022/08/18 00:17:32;;;;;;;2.50;1.88;;;;;;;25.54;47.87;100790.34;4969716;28;20073;-87
2022/08/18 00:19:58;;;;;;;1.17;1.08;;;;;;;25.57;47.54;100793.50;5001910;28;20488;-88
2022/08/18 00:22:24;;;;;;;1.48;1.25;;;;;;;25.39;47.94;100783.09;5002081;28;20089;-86
2022/08/18 00:24:51;;;;;;;1.83;1.33;;;;;;;25.42;48.19;100782.75;4969429;28;20108;-87
2022/08/18 00:27:21;;;;;;;2.63;1.58;;;;;;;25.57;47.61;100796.16;4984877;28;20624;-86
2022/08/18 00:29:47;;;;;;;1.38;1.20;;;;;;;25.54;47.54;100790.34;5000927;28;20417;-87
2022/08/18 00:32:18;;;;;;;2.58;1.70;;;;;;;25.54;47.22;100787.69;4978434;28;20566;-88
2022/08/18 00:34:43;;;;;;;2.20;1.67;;;;;;;25.45;48.07;100787.69;4985658;28;20031;-87
2022/08/18 00:37:09;;;;;;;2.35;1.60;;;;;;;25.51;47.54;100790.69;4985624;28;20043;-87
2022/08/18 00:39:34;;;;;;;1.10;1.00;;;;;;;25.57;47.45;100798.81;4985377;28;20041;-86
2022/08/18 00:42:24;;;;;;;1.85;1.70;;;;;;;25.54;47.82;100799.13;4969083;28;20072;-88
2022/08/18 00:44:50;;;;;;;1.63;1.52;;;;;;;25.50;48.19;100804.94;4985756;28;20153;-87
2022/08/18 00:47:15;;;;;;;1.80;1.60;;;;;;;25.46;48.22;100804.41;4985603;28;20153;-87
2022/08/18 00:49:41;;;;;;;3.13;1.73;;;;;;;25.39;48.32;100792.84;4969209;28;20495;-87
2022/08/18 00:52:07;;;;;;;1.70;1.48;;;;;;;25.40;48.46;100805.09;4985620;28;20495;-88
2022/08/18 00:54:33;;;;;;;0.82;0.82;;;;;;;25.49;47.63;100813.88;4985185;28;20509;-87
2022/08/18 00:57:01;;;;;;;1.05;0.88;;;;;;;25.42;47.68;100811.88;4985624;28;20038;-87
2022/08/18 00:59:43;;;;;;;1.88;1.65;;;;;;;25.36;47.64;100814.34;4969204;28;20411;-88
2022/08/18 01:02:31;;;;;;;1.60;1.30;;;;;;;25.37;47.76;100818.69;4985590;28;20049;-88
2022/08/18 01:05:42;;;;;;;1.35;1.25;;;;;;;25.25;47.54;100804.09;4999035;28;20049;-87
2022/08/18 01:08:11;;;;;;;1.35;1.02;;;;;;;25.43;47.50;100826.78;4972677;28;20038;-87
2022/08/18 01:10:36;;;;;;;1.70;1.60;;;;;;;25.46;47.32;100820.31;4957829;28;20041;-87
2022/08/18 01:13:02;;;;;;;1.10;1.00;;;;;;;25.21;47.27;100781.63;4985103;28;20107;-87
2022/08/18 01:15:27;;;;;;;1.20;1.05;;;;;;;25.48;46.83;100825.47;5004154;28;20030;-88
2022/08/18 01:23:26;;;;;;;1.65;1.27;;;;;;;25.21;47.59;100830.09;4988975;28;20546;-87
2022/08/18 01:26:01;;;;;;;1.67;1.23;;;;;;;25.13;47.58;100816.84;4989040;28;20038;-87
2022/08/18 01:28:28;;;;;;;1.48;1.27;;;;;;;25.18;47.89;100822.50;4989053;28;20085;-88
2022/08/18 01:30:57;;;;;;;0.80;0.80;;;;;;;25.22;47.46;100822.97;4988389;28;20038;-87
2022/08/18 01:33:25;;;;;;;1.75;1.15;;;;;;;25.27;46.91;100815.34;4988785;28;20026;-86
2022/08/18 01:35:51;;;;;;;2.05;1.40;;;;;;;25.34;46.98;100835.72;4997250;28;20538;-86
2022/08/18 01:38:17;;;;;;;1.13;1.02;;;;;;;25.31;47.16;100825.47;4971683;28;20046;-88
2022/08/18 01:40:44;;;;;;;1.67;1.33;;;;;;;25.31;47.23;100837.88;5005439;28;20025;-87
2022/08/18 01:43:10;;;;;;;2.00;1.30;;;;;;;25.24;46.84;100799.81;4988929;28;20037;-87
2022/08/18 01:45:36;;;;;;;1.77;1.30;;;;;;;25.32;47.21;100828.94;4988317;28;20045;-87
2022/08/18 01:48:03;;;;;;;1.10;1.00;;;;;;;25.33;47.35;100828.75;4988219;28;20031;-87
2022/08/18 01:50:29;;;;;;;1.27;1.17;;;;;;;25.28;47.32;100815.22;5004249;28;20121;-87
2022/08/18 01:52:54;;;;;;;1.10;1.00;;;;;;;25.18;47.23;100811.91;5004722;28;20076;-87
2022/08/18 01:55:20;;;;;;;1.50;1.40;;;;;;;25.28;47.21;100807.25;4987315;28;20104;-87
2022/08/18 01:57:45;;;;;;;1.60;1.20;;;;;;;25.26;47.42;100792.53;4987771;28;20053;-87
2022/08/18 02:00:12;;;;;;;1.20;1.10;;;;;;;25.41;47.33;100810.22;4988544;28;20033;-87
2022/08/18 02:02:38;;;;;;;1.55;1.45;;;;;;;25.31;47.67;100806.94;4988712;28;20156;-87
2022/08/18 02:05:29;;;;;;;1.38;1.15;;;;;;;25.32;47.67;100805.94;4987384;28;20124;-87
2022/08/18 02:07:55;;;;;;;2.08;1.73;;;;;;;25.31;47.30;100806.09;4996579;28;20491;-89
2022/08/18 02:10:20;;;;;;;1.45;1.35;;;;;;;25.29;47.63;100806.28;5003821;28;20171;-87
2022/08/18 02:12:46;;;;;;;1.13;1.02;;;;;;;25.17;47.62;100799.63;4987292;28;20053;-87
2022/08/18 02:15:12;;;;;;;1.77;1.30;;;;;;;25.23;47.43;100798.16;4980286;28;20474;-87
2022/08/18 02:17:40;;;;;;;1.70;1.55;;;;;;;25.17;47.61;100791.69;4987352;28;20526;-87
2022/08/18 02:20:07;;;;;;;1.50;1.13;;;;;;;25.09;48.10;100803.13;4987444;28;20030;-86
2022/08/18 02:22:33;;;;;;;1.30;1.20;;;;;;;25.00;48.60;100813.84;4988124;28;20058;-87
2022/08/18 02:24:58;;;;;;;2.03;1.80;;;;;;;24.93;48.47;100812.84;4987815;28;20091;-87
2022/08/18 02:27:25;;;;;;;1.48;1.10;;;;;;;24.94;48.46;100807.38;4986770;28;20034;-87
2022/08/18 02:29:51;;;;;;;0.90;0.90;;;;;;;24.92;48.26;100792.66;4979879;28;20057;-87
2022/08/18 02:32:16;;;;;;;1.55;1.45;;;;;;;24.89;48.36;100799.09;4988344;28;20499;-87
2022/08/18 02:34:42;;;;;;;1.35;1.25;;;;;;;24.82;48.98;100806.88;4997355;28;20141;-87
2022/08/18 02:37:08;;;;;;;2.60;1.77;;;;;;;24.72;49.34;100800.91;4971571;28;20033;-88
2022/08/18 02:39:34;;;;;;;1.23;1.13;;;;;;;24.75;49.32;100800.56;4987721;28;20030;-88
2022/08/18 02:42:00;;;;;;;1.92;1.25;;;;;;;24.84;48.86;100807.53;4987232;28;20049;-87
2022/08/18 02:44:25;;;;;;;1.98;1.77;;;;;;;24.71;49.17;100796.59;4987052;28;20046;-88
2022/08/18 02:46:52;;;;;;;1.80;1.70;;;;;;;24.58;49.32;100790.94;5003677;28;20480;-89
2022/08/18 02:49:18;;;;;;;1.40;1.20;;;;;;;24.55;49.93;100809.78;5003166;28;20034;-88
2022/08/18 02:51:43;;;;;;;2.20;1.45;;;;;;;24.55;50.07;100801.84;4988043;28;20414;-87
2022/08/18 02:54:10;;;;;;;1.45;1.25;;;;;;;24.51;49.95;100793.41;5003679;28;20526;-87
2022/08/18 02:56:35;;;;;;;1.65;1.33;;;;;;;24.54;49.88;100805.47;5002758;28;20037;-88
2022/08/18 02:59:06;;;;;;;1.52;1.15;;;;;;;24.41;50.25;100802.47;4971706;28;20033;-87
2022/08/18 03:01:34;;;;;;;0.85;0.80;;;;;;;24.43;51.04;100790.75;4978373;28;20414;-84
2022/08/18 03:04:01;;;;;;;1.25;1.15;;;;;;;24.54;50.52;100808.13;4986551;28;20030;-85
2022/08/18 03:06:27;;;;;;;1.20;0.95;;;;;;;24.63;50.35;100822.19;4986809;28;20034;-86
2022/08/18 03:08:53;;;;;;;1.55;1.23;;;;;;;24.56;51.14;100822.84;4986369;28;20034;-85
2022/08/18 03:11:20;;;;;;;1.27;1.15;;;;;;;24.41;50.51;100807.75;4987399;28;20038;-84
2022/08/18 03:13:46;;;;;;;1.67;1.58;;;;;;;24.33;51.20;100818.31;4987511;28;20091;-84
2022/08/18 03:16:12;;;;;;;1.45;1.35;;;;;;;24.33;52.20;100815.66;4986391;28;20122;-84
2022/08/18 03:18:40;;;;;;;1.50;1.17;;;;;;;24.36;50.72;100825.91;4987185;28;20429;-86
2022/08/18 03:21:13;;;;;;;1.48;1.38;;;;;;;24.47;50.83;100828.25;5002971;28;20030;-85
2022/08/18 03:23:39;;;;;;;1.80;1.70;;;;;;;24.44;50.09;100813.53;4970398;28;20054;-85
2022/08/18 03:26:10;;;;;;;1.13;1.08;;;;;;;24.40;50.71;100827.25;4970535;28;20116;-85
2022/08/18 03:28:39;;;;;;;1.15;1.05;;;;;;;24.36;50.55;100836.47;5001251;28;20847;-85
2022/08/18 03:31:05;;;;;;;1.77;1.42;;;;;;;24.36;50.13;100833.84;4987515;28;20038;-84
2022/08/18 03:33:30;;;;;;;2.88;1.48;;;;;;;24.53;50.49;100833.75;4969078;28;20042;-85
2022/08/18 03:36:02;;;;;;;1.13;1.00;;;;;;;24.72;49.89;100808.84;4986472;28;20066;-86
2022/08/18 03:38:27;;;;;;;1.70;1.60;;;;;;;25.23;49.25;100836.03;4987200;28;20486;-85
2022/08/18 03:40:53;;;;;;;1.20;1.10;;;;;;;25.46;48.35;100837.03;4970873;28;20025;-84
2022/08/18 03:43:18;;;;;;;0.75;0.70;;;;;;;25.59;48.00;100843.66;4973542;28;20038;-82
2022/08/18 03:45:45;;;;;;;2.63;2.03;;;;;;;25.55;47.89;100829.06;5002066;28;20030;-83
2022/08/18 03:48:10;;;;;;;1.50;1.08;;;;;;;25.64;47.50;100846.63;4974324;28;20030;-82
2022/08/18 03:50:36;;;;;;;2.25;1.27;;;;;;;25.76;47.28;100840.00;4974374;28;20415;-83
2022/08/18 03:53:04;;;;;;;2.22;1.73;;;;;;;25.73;47.19;100825.28;4958424;28;20042;-83
2022/08/18 03:55:29;;;;;;;2.67;2.42;;;;;;;25.78;47.05;100831.91;4974390;28;20068;-83
2022/08/18 03:58:01;;;;;;;2.45;2.08;;;;;;;25.59;47.41;100835.72;4974412;28;20443;-84
2022/08/18 04:00:28;;;;;;;1.85;1.13;;;;;;;25.46;46.71;100842.31;4974730;28;20033;-83
2022/08/18 04:02:55;;;;;;;1.00;0.90;;;;;;;25.24;48.00;100831.56;4974144;28;20030;-83
2022/08/18 04:05:20;;;;;;;1.60;1.30;;;;;;;25.09;47.99;100819.00;4958118;28;20034;-83
2022/08/18 04:07:47;;;;;;;1.88;1.58;;;;;;;24.97;48.40;100814.16;4958052;28;20082;-83
2022/08/18 04:10:13;;;;;;;1.35;1.25;;;;;;;25.07;48.28;100836.03;4974242;28;20065;-84
2022/08/18 04:12:40;;;;;;;1.15;1.05;;;;;;;25.31;47.95;100854.59;4957709;28;20034;-83
2022/08/18 04:15:06;;;;;;;0.57;0.57;;;;;;;25.76;46.93;100850.59;4972220;28;20030;-84
2022/08/18 04:17:31;;;;;;;1.65;1.40;;;;;;;25.66;47.35;100863.16;5000513;28;20468;-82
2022/08/18 04:19:57;;;;;;;1.38;1.27;;;;;;;25.48;47.58;100854.59;5003234;28;20100;-83
2022/08/18 04:22:23;;;;;;;1.13;1.02;;;;;;;25.58;47.48;100863.19;5009670;28;20112;-83
2022/08/18 04:24:49;;;;;;;1.75;1.42;;;;;;;25.70;47.38;100875.13;5008365;28;20061;-83
2022/08/18 04:27:15;;;;;;;1.77;1.38;;;;;;;25.76;47.31;100879.75;5005151;28;20084;-83
2022/08/18 04:29:40;;;;;;;1.50;1.40;;;;;;;25.91;47.25;100872.78;5009324;28;20565;-83
2022/08/18 04:32:06;;;;;;;1.05;0.95;;;;;;;25.84;47.37;100882.41;5009701;28;20407;-83
2022/08/18 04:34:32;;;;;;;1.52;1.42;;;;;;;25.87;47.63;100876.78;5009361;28;20026;-83
2022/08/18 04:36:57;;;;;;;1.50;1.40;;;;;;;26.02;47.08;100867.13;5007658;28;20056;-85
2022/08/18 04:39:24;;;;;;;1.70;1.50;;;;;;;26.12;47.00;100880.19;4991031;28;20033;-85
2022/08/18 04:41:50;;;;;;;2.45;2.03;;;;;;;26.07;47.41;100881.72;4979838;28;20026;-86
2022/08/18 04:44:16;;;;;;;1.55;1.35;;;;;;;25.99;46.94;100864.81;5002914;28;20033;-87
2022/08/18 04:46:46;;;;;;;1.55;1.45;;;;;;;26.30;47.05;100895.88;4996979;28;20101;-84
2022/08/18 04:49:12;;;;;;;1.33;1.23;;;;;;;26.27;46.89;100882.97;4995251;28;20029;-88
2022/08/18 04:51:40;;;;;;;1.20;1.10;;;;;;;25.66;46.78;100892.31;4987391;28;20152;-86
2022/08/18 04:54:05;;;;;;;2.28;1.77;;;;;;;24.63;49.58;100861.88;4997059;28;20033;-83
2022/08/18 04:56:33;;;;;;;2.17;1.70;;;;;;;24.27;50.35;100897.22;5012649;28;20022;-83
2022/08/18 04:59:06;;;;;;;1.70;1.45;;;;;;;23.97;53.15;100905.63;4994253;28;20038;-94
2022/08/18 05:01:37;;;;;;;1.60;1.35;;;;;;;23.63;55.85;100887.06;5007293;28;20033;-84
2022/08/18 05:04:02;;;;;;;2.22;1.65;;;;;;;23.57;58.11;100893.75;4977450;28;20030;-88
2022/08/18 05:06:28;;;;;;;1.67;1.45;;;;;;;23.58;59.06;100894.56;4977895;28;20061;-92
2022/08/18 05:08:57;;;;;;;1.67;1.58;;;;;;;23.47;58.13;100900.91;4976270;28;20057;-88
2022/08/18 05:11:23;;;;;;;0.95;0.90;;;;;;;23.34;57.96;100887.28;4977067;28;20026;-87
2022/08/18 05:13:51;;;;;;;1.58;1.48;;;;;;;23.36;57.59;100890.59;4960655;28;20034;-86
2022/08/18 05:16:16;;;;;;;3.20;1.77;;;;;;;23.45;57.18;100905.53;4965672;28;20037;-92
2022/08/18 05:18:42;;;;;;;1.00;0.90;;;;;;;23.50;57.82;100898.00;5011712;28;20021;-84
2022/08/18 05:21:10;;;;;;;1.65;1.25;;;;;;;23.50;57.47;100895.34;4993030;28;20035;-83
2022/08/18 05:23:35;;;;;;;1.33;1.10;;;;;;;23.41;57.73;100870.69;4977331;28;20038;-84
2022/08/18 05:26:02;;;;;;;2.63;1.50;;;;;;;23.56;57.43;100894.72;4976250;28;20512;-87
2022/08/18 05:28:29;;;;;;;2.58;1.73;;;;;;;23.57;57.65;100887.63;4961094;28;20042;-89
2022/08/18 05:30:55;;;;;;;1.55;1.45;;;;;;;23.57;56.97;100877.91;5003500;28;20085;-86
2022/08/18 05:33:21;;;;;;;1.23;1.00;;;;;;;23.74;56.43;100885.00;5012439;28;20113;-92
2022/08/18 05:35:48;;;;;;;1.27;1.05;;;;;;;23.86;56.63;100888.22;4980358;28;20120;-90
2022/08/18 05:38:38;;;;;;;1.00;0.85;;;;;;;23.90;55.75;100876.38;4996571;28;20431;-85
2022/08/18 05:41:12;;;;;;;1.40;1.30;;;;;;;23.97;55.51;100871.28;5003142;28;20042;-85
2022/08/18 05:43:37;;;;;;;0.70;0.70;;;;;;;24.37;54.37;100888.38;5014153;28;20022;-86
2022/08/18 05:46:04;;;;;;;1.65;1.45;;;;;;;24.42;54.15;100894.84;4994489;28;20040;-91
2022/08/18 05:48:31;;;;;;;1.23;1.00;;;;;;;24.42;54.10;100873.69;4992704;28;20109;-83
2022/08/18 05:50:56;;;;;;;1.80;1.55;;;;;;;24.52;54.16;100884.16;4995553;28;20034;-82
2022/08/18 05:56:45;;;;;;;1.48;1.38;;;;;;;24.43;53.99;100863.94;5012041;28;20392;-85
2022/08/18 05:58:54;;;;;;;1.48;1.38;;;;;;;24.73;53.32;100892.50;4995047;28;20083;-85
2022/08/18 06:01:30;;;;;;;1.95;1.77;;;;;;;24.83;53.20;100887.91;4974806;28;20034;-84
2022/08/18 06:04:08;;;;;;;1.45;1.30;;;;;;;24.85;53.34;100875.31;4996438;28;20041;-86
2022/08/18 06:06:35;;;;;;;1.60;1.50;;;;;;;25.07;53.91;100896.91;4995830;28;20033;-82
2022/08/18 06:09:12;;;;;;;1.50;1.38;;;;;;;25.15;53.48;100881.88;4991521;28;20022;-86
2022/08/18 06:11:38;;;;;;;2.33;1.45;;;;;;;25.34;53.14;100893.16;4964347;28;20027;-90
2022/08/18 06:14:04;;;;;;;2.28;1.73;;;;;;;25.51;50.67;100870.16;4992323;28;20034;-83
2022/08/18 06:16:42;;;;;;;2.35;2.15;;;;;;;25.98;50.08;100902.94;5003138;28;21515;-82
2022/08/18 06:19:38;;;;;;;2.22;1.45;;;;;;;26.32;48.94;100896.53;4998871;28;20026;-82
2022/08/18 06:22:23;;;;;;;1.55;1.45;;;;;;;26.60;48.86;100894.31;5000423;28;20050;-86
2022/08/18 06:25:35;;;;;;;1.63;1.52;;;;;;;26.93;46.25;100889.66;4979430;28;20068;-86
2022/08/18 06:28:09;;;;;;;1.90;1.73;;;;;;;27.21;45.92;100886.50;4991122;28;20125;-83
2022/08/18 06:30:41;;;;;;;2.47;1.90;;;;;;;27.42;45.93;100892.00;4975757;28;20034;-82
2022/08/18 06:33:49;;;;;;;2.30;2.00;;;;;;;27.55;46.03;100900.22;4991488;28;20466;-81
2022/08/18 06:36:36;;;;;;;4.88;3.97;;;;;;;27.74;45.41;100901.56;4961646;28;20045;-86
2022/08/18 06:39:05;;;;;;;5.65;3.92;;;;;;;27.86;45.17;100896.63;5005516;28;20030;-88
2022/08/18 06:41:36;;;;;;;2.92;2.33;;;;;;;27.95;45.37;100896.38;5010699;28;20034;-92
2022/08/18 06:44:10;;;;;;;1.70;1.60;;;;;;;28.05;45.66;100879.34;5027843;28;20073;-85
2022/08/18 06:46:39;;;;;;;2.30;1.48;;;;;;;28.29;44.30;100898.50;5007547;28;20038;-87
2022/08/18 06:49:07;;;;;;;1.83;1.58;;;;;;;28.22;44.25;100872.78;4998287;28;20037;-87
2022/08/18 06:51:33;;;;;;;2.00;1.80;;;;;;;28.56;44.16;100890.88;4995197;28;20040;-89
2022/08/18 06:54:01;;;;;;;2.15;1.67;;;;;;;28.65;43.92;100876.47;4994531;28;20026;-83
2022/08/18 06:56:39;;;;;;;1.88;1.50;;;;;;;28.85;44.18;100887.34;5011678;28;20036;-84
2022/08/18 06:59:23;;;;;;;1.95;1.38;;;;;;;28.90;44.72;100881.47;5000535;28;20053;-86
2022/08/18 07:02:25;;;;;;;1.55;1.42;;;;;;;29.18;45.27;100893.03;5010336;28;20061;-83
2022/08/18 07:05:01;;;;;;;2.00;1.83;;;;;;;29.37;42.47;100891.56;4956967;28;20591;-89
2022/08/18 07:07:30;;;;;;;1.15;0.98;;;;;;;29.60;38.76;100889.56;4985333;28;20042;-84
2022/08/18 07:09:55;;;;;;;1.42;1.20;;;;;;;29.73;38.77;100869.34;4991487;28;20084;-85
2022/08/18 07:12:26;;;;;;;1.70;1.35;;;;;;;29.89;37.66;100875.22;4974302;28;20034;-85
2022/08/18 07:14:57;;;;;;;1.50;1.17;;;;;;;30.19;37.05;100885.69;4977100;28;20463;-86
2022/08/18 07:17:28;;;;;;;1.23;1.10;;;;;;;30.33;37.45;100887.38;4987123;28;20503;-82
2022/08/18 07:20:18;;;;;;;1.45;0.95;;;;;;;30.44;36.78;100884.13;4983585;28;20320;-84
2022/08/18 07:23:00;;;;;;;2.00;1.42;;;;;;;30.64;36.33;100881.59;4986979;28;20097;-87
2022/08/18 07:25:28;;;;;;;2.70;1.65;;;;;;;30.74;36.57;100881.19;4993996;28;20029;-90
2022/08/18 07:27:55;;;;;;;1.42;1.33;;;;;;;30.83;35.88;100877.31;5006374;28;20037;-90
2022/08/18 07:30:21;;;;;;;1.88;1.50;;;;;;;31.05;35.82;100878.81;4975404;28;20030;-88
2022/08/18 07:33:10;;;;;;;1.10;0.80;;;;;;;31.07;35.98;100865.22;4992369;28;20027;-89
2022/08/18 07:35:46;;;;;;;1.25;1.13;;;;;;;31.15;35.57;100853.53;4959028;28;20076;-86
2022/08/18 07:38:29;;;;;;;1.52;1.23;;;;;;;31.30;35.24;100872.91;4958090;28;20053;-87
2022/08/18 07:41:31;;;;;;;1.60;1.30;;;;;;;31.28;34.92;100877.66;4972542;28;20506;-84
2022/08/18 07:44:18;;;;;;;5.55;5.03;;;;;;;31.42;35.01;100873.94;4970871;28;20035;-83
2022/08/18 07:47:09;;;;;;;1.63;1.30;;;;;;;31.73;33.93;100872.47;4989008;28;20065;-82
2022/08/18 07:49:35;;;;;;;3.05;1.83;;;;;;;31.94;33.83;100877.63;4988732;28;20065;-82
2022/08/18 07:52:07;;;;;;;1.42;0.95;;;;;;;31.95;32.42;100850.63;4972116;28;20127;-84
2022/08/18 07:54:45;;;;;;;1.85;0.98;;;;;;;32.19;32.37;100859.84;4974877;28;20087;-84
2022/08/18 07:57:26;;;;;;;1.90;1.30;;;;;;;32.40;31.25;100863.31;4998024;28;20599;-83
2022/08/18 07:59:51;;;;;;;1.02;0.93;;;;;;;32.54;30.98;100864.88;4990788;28;20037;-84
2022/08/18 08:02:38;;;;;;;1.77;1.35;;;;;;;32.71;31.26;100860.66;4997486;28;20025;-86
2022/08/18 08:05:18;;;;;;;2.42;2.08;;;;;;;32.82;31.77;100865.34;4991159;28;20137;-83
2022/08/18 08:07:58;;;;;;;1.77;1.20;;;;;;;32.80;30.61;100864.75;4989671;28;20525;-82
2022/08/18 08:10:48;;;;;;;1.90;1.70;;;;;;;32.68;31.01;100850.38;4996846;28;20359;-83
2022/08/18 08:13:19;;;;;;;2.05;1.67;;;;;;;32.88;30.78;100860.19;4973735;28;20030;-85
2022/08/18 08:16:01;;;;;;;2.92;2.03;;;;;;;33.07;31.02;100860.06;5009396;28;20510;-87
2022/08/18 08:18:39;;;;;;;1.27;1.15;;;;;;;33.18;30.92;100850.50;5009324;28;20161;-90
2022/08/18 08:21:09;;;;;;;2.92;2.15;;;;;;;33.25;30.41;100812.91;5001531;28;20034;-86
2022/08/18 08:23:50;;;;;;;1.67;1.25;;;;;;;33.51;29.33;100844.06;4990095;28;20363;-85
2022/08/18 08:26:48;;;;;;;1.67;1.40;;;;;;;33.64;29.36;100852.81;4995639;28;20556;-89
2022/08/18 08:29:23;;;;;;;2.28;1.83;;;;;;;33.74;29.45;100849.63;5002398;28;20111;-94
2022/08/18 08:32:21;;;;;;;2.83;1.88;;;;;;;33.85;29.48;100856.13;5008464;28;20034;-88
2022/08/18 08:34:54;;;;;;;1.80;1.35;;;;;;;33.92;28.67;100841.63;4966540;28;20053;-85
2022/08/18 08:37:56;;;;;;;2.05;1.67;;;;;;;33.97;28.55;100848.16;4985079;28;20481;-87
2022/08/18 08:40:28;;;;;;;2.90;1.65;;;;;;;34.08;28.71;100852.78;4991088;28;20515;-85
2022/08/18 08:42:56;;;;;;;2.08;1.70;;;;;;;34.11;28.55;100845.09;4993363;28;20040;-88
2022/08/18 08:45:41;;;;;;;2.08;1.35;;;;;;;34.29;27.96;100846.94;5008399;28;20022;-87
2022/08/18 08:48:10;;;;;;;2.70;1.90;;;;;;;34.44;27.62;100846.59;4993040;28;20129;-89
2022/08/18 08:51:00;;;;;;;2.35;2.00;;;;;;;34.45;28.08;100856.28;5007924;28;20860;-82
2022/08/18 08:53:34;;;;;;;2.47;1.80;;;;;;;34.50;28.13;100846.50;5004668;28;20038;-85
2022/08/18 08:56:06;;;;;;;2.63;2.28;;;;;;;34.56;28.06;100854.69;5008328;28;20487;-86
2022/08/18 08:58:59;;;;;;;2.22;1.92;;;;;;;34.63;28.03;100850.06;5008142;28;20022;-86
2022/08/18 09:01:42;;;;;;;2.20;1.92;;;;;;;34.77;27.99;100838.06;5001115;28;20117;-86
2022/08/18 09:04:36;;;;;;;1.52;1.30;;;;;;;34.94;28.47;100839.09;5017889;28;20034;-86
2022/08/18 09:07:20;;;;;;;9.70;1.58;;;;;;;34.98;27.74;100840.25;5011426;28;20022;-89
2022/08/18 09:10:22;;;;;;;1.88;1.60;;;;;;;34.95;27.60;100842.59;4998249;28;20117;-86
2022/08/18 09:13:17;;;;;;;4.07;2.80;;;;;;;35.08;27.69;100837.00;4988639;28;20034;-90
2022/08/18 09:15:47;;;;;;;3.60;2.63;;;;;;;35.11;26.89;100816.91;4970430;28;20050;-86
2022/08/18 09:18:37;;;;;;;2.85;2.42;;;;;;;35.25;26.86;100823.69;4988140;28;20031;-87
2022/08/18 09:21:30;;;;;;;4.13;2.75;;;;;;;35.32;27.38;100824.41;4986152;28;20034;-89
2022/08/18 09:24:28;;;;;;;1.80;1.58;;;;;;;35.38;26.14;100822.63;4987520;28;20093;-86
2022/08/18 09:27:13;;;;;;;1.33;1.05;;;;;;;35.37;26.96;100816.44;4970974;28;20026;-85
2022/08/18 09:29:58;;;;;;;2.40;1.85;;;;;;;35.25;26.42;100813.75;4987453;28;20110;-82
2022/08/18 09:32:24;;;;;;;2.60;1.88;;;;;;;35.25;25.74;100797.63;4986825;28;20476;-82
2022/08/18 09:35:09;;;;;;;1.65;1.50;;;;;;;35.42;25.97;100803.16;4986457;28;20033;-85
2022/08/18 09:41:30;;;;;;;2.00;1.50;;;;;;;35.42;26.50;100792.41;4991638;28;20547;-82
2022/08/18 09:43:54;;;;;;;1.63;1.50;;;;;;;35.46;23.42;100793.53;4982291;28;20127;-83
2022/08/18 09:46:41;;;;;;;1.52;1.13;;;;;;;35.53;23.67;100796.94;4993688;28;20399;-84
2022/08/18 09:49:21;;;;;;;1.73;1.40;;;;;;;35.67;23.33;100792.13;5012162;28;20060;-85
2022/08/18 09:52:00;;;;;;;2.13;1.60;;;;;;;35.45;22.44;100762.31;5012534;28;20105;-85
2022/08/18 09:54:30;;;;;;;2.67;2.20;;;;;;;35.22;23.32;100781.16;5011514;28;20026;-83
2022/08/18 09:57:16;;;;;;;1.67;1.50;;;;;;;35.63;23.12;100785.59;5011422;28;20030;-82
2022/08/18 09:59:52;;;;;;;2.40;1.80;;;;;;;35.73;22.12;100776.91;5011299;28;20026;-89
2022/08/18 10:02:30;;;;;;;2.05;1.50;;;;;;;35.87;22.36;100781.00;4988946;28;20034;-84
2022/08/18 10:05:27;;;;;;;2.10;1.75;;;;;;;35.96;21.79;100767.97;5012524;28;20065;-85
2022/08/18 10:08:16;;;;;;;2.00;1.23;;;;;;;36.15;23.15;100764.84;5010722;28;20080;-92
2022/08/18 10:10:59;;;;;;;2.88;2.10;;;;;;;36.34;22.49;100772.75;4991953;28;20031;-86
2022/08/18 10:13:34;;;;;;;1.80;1.52;;;;;;;36.37;22.49;100773.09;4976630;28;20026;-85
2022/08/18 10:16:06;;;;;;;2.13;1.80;;;;;;;36.34;22.67;100756.59;4993597;28;20026;-90
2022/08/18 10:18:43;;;;;;;2.05;1.75;;;;;;;36.57;22.52;100761.88;4992048;28;20077;-89
2022/08/18 10:21:26;;;;;;;2.30;1.80;;;;;;;36.60;22.65;100761.41;4991624;28;20393;-83
2022/08/18 10:24:04;;;;;;;2.10;1.77;;;;;;;36.95;22.33;100761.16;4993316;28;20026;-82
2022/08/18 10:26:29;;;;;;;2.30;1.95;;;;;;;36.75;22.98;100758.13;4976757;28;20950;-80
2022/08/18 10:29:11;;;;;;;2.30;2.03;;;;;;;36.63;22.82;100766.28;4993247;28;20407;-80
2022/08/18 10:31:55;;;;;;;1.70;1.33;;;;;;;36.50;21.24;100763.09;4991969;28;20035;-81
2022/08/18 10:34:43;;;;;;;1.60;1.33;;;;;;;36.33;21.11;100760.34;4992303;28;20081;-81
2022/08/18 10:37:25;;;;;;;2.17;1.52;;;;;;;36.51;21.43;100757.47;4991351;28;20022;-83
2022/08/18 10:40:03;;;;;;;2.47;2.10;;;;;;;36.66;21.60;100746.13;4991197;28;20029;-88
2022/08/18 10:42:33;;;;;;;2.47;1.83;;;;;;;36.56;21.92;100746.75;4990936;28;20053;-83
2022/08/18 10:45:14;;;;;;;2.35;2.15;;;;;;;36.67;22.03;100753.94;4991410;28;20480;-83
2022/08/18 10:47:41;;;;;;;3.13;2.08;;;;;;;36.84;22.20;100747.78;4954605;28;20399;-81
2022/08/18 10:50:53;;;;;;;1.85;1.48;;;;;;;37.14;21.46;100750.94;5003949;28;20029;-82
2022/08/18 10:53:39;;;;;;;2.20;1.75;;;;;;;37.15;21.27;100727.47;5006584;28;20042;-85
2022/08/18 10:56:10;;;;;;;1.50;1.30;;;;;;;37.33;21.54;100740.72;5010932;28;20026;-81
2022/08/18 10:58:35;;;;;;;;;;;;;;;37.45;21.00;100741.41;5011436;28;20029;-86
2022/08/18 11:01:10;;;;;;;4.47;1.85;;;;;;;37.39;21.57;100742.44;5010791;28;19913;-86
2022/08/18 11:03:58;;;;;;;2.47;1.38;;;;;;;37.04;21.39;100703.06;5007813;28;20018;-84
2022/08/18 11:06:24;;;;;;;2.45;1.65;;;;;;;37.29;21.26;100731.47;4988637;28;20034;-83
2022/08/18 11:08:52;;;;;;;2.53;1.58;;;;;;;36.99;21.11;100721.06;4997209;28;20451;-85
2022/08/18 11:11:41;;;;;;;2.33;2.13;;;;;;;36.78;21.28;100713.72;5008544;28;20033;-84
2022/08/18 11:14:30;;;;;;;2.55;1.88;;;;;;;37.19;21.46;100718.66;4993197;28;20022;-93
2022/08/18 11:16:58;;;;;;;2.35;1.88;;;;;;;37.24;20.89;100724.09;5005311;28;20514;-88
2022/08/18 11:19:24;;;;;;;2.47;1.92;;;;;;;37.17;20.98;100726.19;5002570;28;20045;-88
2022/08/18 11:21:50;;;;;;;1.45;1.27;;;;;;;37.17;20.45;100723.50;4993628;28;20096;-84
2022/08/18 11:24:15;;;;;;;2.80;2.03;;;;;;;37.32;21.13;100726.41;4994116;28;20485;-82
2022/08/18 11:26:41;;;;;;;3.05;2.20;;;;;;;37.36;20.33;100736.69;5011672;28;20109;-89
2022/08/18 11:29:20;;;;;;;2.13;1.77;;;;;;;37.41;20.83;100720.59;5011173;28;20027;-92
2022/08/18 11:31:46;;;;;;;1.67;1.45;;;;;;;37.26;20.69;100718.47;5006562;28;20037;-87
2022/08/18 11:34:16;;;;;;;2.05;1.70;;;;;;;37.36;20.99;100715.94;4974392;28;20077;-88
2022/08/18 11:36:42;;;;;;;3.08;1.60;;;;;;;37.53;20.96;100715.88;4972208;28;20487;-87
2022/08/18 11:39:08;;;;;;;1.92;1.65;;;;;;;37.50;20.48;100721.78;4989712;28;20042;-88
2022/08/18 11:41:36;;;;;;;2.50;1.63;;;;;;;37.58;20.29;100713.25;4973962;28;20023;-80
2022/08/18 11:44:04;;;;;;;2.33;1.80;;;;;;;37.44;19.84;100712.81;4984159;28;20527;-80
2022/08/18 11:46:32;;;;;;;1.92;1.52;;;;;;;37.61;20.49;100702.75;4993779;28;20026;-79
2022/08/18 11:48:59;;;;;;;2.80;2.17;;;;;;;37.72;20.14;100703.69;5009701;28;20030;-80
2022/08/18 11:51:27;;;;;;;2.47;1.50;;;;;;;37.76;20.01;100699.47;4993595;28;20034;-80
2022/08/18 11:53:57;;;;;;;2.28;1.83;;;;;;;37.91;20.51;100689.88;5009959;28;20037;-80
2022/08/18 11:56:30;;;;;;;2.17;1.83;;;;;;;37.87;19.96;100709.31;5008091;28;20061;-85
2022/08/18 11:59:00;;;;;;;1.83;1.48;;;;;;;37.31;20.23;100695.09;4982446;28;20125;-88
2022/08/18 12:01:26;;;;;;;2.45;1.67;;;;;;;37.65;19.96;100697.66;4987925;28;20033;-87